Alton, MO

9:40 AM CDT on October 24, 2014 (GMT -0500)
West Plains Municipal | Change Station
CLOSE
Current Station
Airport
Location: West Plains,
Elevation: 1227 ft
Nearby Weather Stations

Elev 1227 ft 36.88 °N, 91.91 °W | Updated 32 minutes ago

Partly Cloudy
Partly Cloudy
53 °F
Feels Like 53 °F
N
0
Wind Variable Wind from North

Today
High -- | Low -- °F
--% Chance of Precip.
Yesterday
High -- | Low -- °F
Precip. -- in
7:21 AM 6:17 PM
New Moon, 1% visible
Pressure 30.16 in
Visibility 10.0 miles
Clouds Scattered Clouds 1800 ft
Dew Point 49 °F
Humidity 86%
Rainfall 0.00 in
Snow Depth Not available.
UV 1 out of 12
Pollen 2.70 out of 12
Air Quality Not available.
Flu Activity No Activity
SPECI KUNO 241408Z AUTO 00000KT 10SM SCT018 12/09 A3016 RMK AO2 T01170094

More Conditions Fewer Conditions

Pressure 30.16 in
Visibility 10.0 miles
Clouds Scattered Clouds 1800 ft
Dew Point 49 °F
Humidity 86%
Rainfall 0.00 in
Snow Depth Not available.
UV 1 out of 12
Pollen 2.70 out of 12
Air Quality Not available.
Flu Activity No Activity
SPECI KUNO 241408Z AUTO 00000KT 10SM SCT018 12/09 A3016 RMK AO2 T01170094

More Conditions Fewer Conditions

10-Day Weather Forecast

Almanac

Astronomy

Oct. 24, 2014 Rise Set
Actual Time 7:21 AM CDT 6:17 PM CDT
Civil Twilight 6:54 AM CDT 6:43 PM CDT
Nautical Twilight 6:24 AM CDT 7:14 PM CDT
Astronomical Twilight 5:54 AM CDT 7:44 PM CDT
Moon 7:59 AM CDT 6:58 PM CDT
Length of Visible Light 11h 48m
Length of Day
10h 56m
Tomorrow will be 2m 9s shorter.
New Moon, 1% of the Moon is Illuminated
Today
New Moon
Oct 30
First Quarter
Nov 6
Full
Nov 14
Last Quarter
Nov 22
New

Today's Extremes

State Highs State Lows

Community

WunderPhotos

Upload Photos

1,764,581 photos uploaded!

WunderBlogs® & News

Nearby

Snow Depth

Station Depth Elevation
No new snow has been reported.

Earthquake Activity

City Distance Mag. Time & Date
No recent earthquake activity has been reported nearby.
Minimum magnitude displayed is 2.5.

Coastal Water Temperatures

Place Temperature
No Stations Reporting

Nearby Weather Stations